Terminal Aerodrome Forecast
Issued by NWS Springfield, MO

Home | Current Version | Previous Version | Text Only | Print | Product List | Glossary On
Versions: 1 2 3 4 5 6 7 8 9 10 11 12 13 14
000
FTUS43 KSGF 081400 AAA
TAFSGF
TAF AMD
KSGF 081427Z 0814/0912 19011KT P6SM VCTS SCT040CB BKN100
     FM081700 31008KT P6SM SCT030 BKN250
     FM090400 VRB04KT P6SM SKC=

USA.gov is the U.S. government's official web portal to all federal, state and local government web resources and services.